sensor_id;sensor_type;location;lat;lon;timestamp;pressure;altitude;pressure_sealevel;temperature;humidity
62712;BME280;48772;55.586;37.730;2024-01-30T00:02:11;100437.97;;;-1.24;100.00
62712;BME280;48772;55.586;37.730;2024-01-30T00:04:37;100448.34;;;-1.21;100.00
62712;BME280;48772;55.586;37.730;2024-01-30T00:07:03;100437.22;;;-1.31;100.00
62712;BME280;48772;55.586;37.730;2024-01-30T00:09:29;100429.50;;;-1.35;100.00
62712;BME280;48772;55.586;37.730;2024-01-30T00:11:55;100451.91;;;-1.24;100.00
62712;BME280;48772;55.586;37.730;2024-01-30T00:14:20;100433.03;;;-1.39;100.00
62712;BME280;48772;55.586;37.730;2024-01-30T00:16:46;100429.53;;;-1.38;100.00
62712;BME280;48772;55.586;37.730;2024-01-30T00:19:12;100461.53;;;-1.24;100.00
62712;BME280;48772;55.586;37.730;2024-01-30T00:21:38;100451.09;;;-1.26;100.00
62712;BME280;48772;55.586;37.730;2024-01-30T00:24:04;100453.59;;;-1.21;100.00
62712;BME280;48772;55.586;37.730;2024-01-30T00:26:30;100440.41;;;-1.15;100.00
62712;BME280;48772;55.586;37.730;2024-01-30T00:28:56;100457.81;;;-1.14;100.00
62712;BME280;48772;55.586;37.730;2024-01-30T00:31:21;100438.47;;;-1.07;100.00
62712;BME280;48772;55.586;37.730;2024-01-30T00:33:47;100442.03;;;-1.10;100.00
62712;BME280;48772;55.586;37.730;2024-01-30T00:36:13;100453.19;;;-1.02;100.00
62712;BME280;48772;55.586;37.730;2024-01-30T00:38:39;100420.53;;;-1.25;100.00
62712;BME280;48772;55.586;37.730;2024-01-30T00:41:08;100427.94;;;-1.04;100.00
62712;BME280;48772;55.586;37.730;2024-01-30T00:43:34;100418.53;;;-1.13;100.00
62712;BME280;48772;55.586;37.730;2024-01-30T00:46:00;100427.03;;;-1.03;100.00
62712;BME280;48772;55.586;37.730;2024-01-30T00:48:25;100439.06;;;-0.93;100.00
62712;BME280;48772;55.586;37.730;2024-01-30T00:50:51;100400.25;;;-1.14;100.00
62712;BME280;48772;55.586;37.730;2024-01-30T00:53:17;100405.94;;;-0.94;100.00
62712;BME280;48772;55.586;37.730;2024-01-30T00:55:43;100416.50;;;-0.99;100.00
62712;BME280;48772;55.586;37.730;2024-01-30T00:58:09;100411.28;;;-1.00;100.00
62712;BME280;48772;55.586;37.730;2024-01-30T01:00:35;100405.03;;;-0.93;100.00
62712;BME280;48772;55.586;37.730;2024-01-30T01:03:01;100421.56;;;-0.91;100.00
62712;BME280;48772;55.586;37.730;2024-01-30T01:05:27;100411.91;;;-0.89;100.00
62712;BME280;48772;55.586;37.730;2024-01-30T01:07:53;100448.59;;;-0.91;100.00
62712;BME280;48772;55.586;37.730;2024-01-30T01:10:19;100410.25;;;-0.93;100.00
62712;BME280;48772;55.586;37.730;2024-01-30T01:12:46;100390.50;;;-1.06;100.00
62712;BME280;48772;55.586;37.730;2024-01-30T01:15:12;100404.09;;;-0.91;100.00
62712;BME280;48772;55.586;37.730;2024-01-30T01:17:38;100405.22;;;-1.01;100.00
62712;BME280;48772;55.586;37.730;2024-01-30T01:20:05;100405.31;;;-1.05;100.00
62712;BME280;48772;55.586;37.730;2024-01-30T01:22:32;100410.00;;;-0.83;100.00
62712;BME280;48772;55.586;37.730;2024-01-30T01:25:00;100410.19;;;-0.90;100.00
62712;BME280;48772;55.586;37.730;2024-01-30T01:27:26;100410.19;;;-0.90;100.00
62712;BME280;48772;55.586;37.730;2024-01-30T01:29:53;100403.88;;;-0.80;100.00
62712;BME280;48772;55.586;37.730;2024-01-30T01:32:19;100426.53;;;-0.79;100.00
62712;BME280;48772;55.586;37.730;2024-01-30T01:34:45;100404.97;;;-0.90;100.00
62712;BME280;48772;55.586;37.730;2024-01-30T01:37:11;100398.69;;;-0.83;100.00
62712;BME280;48772;55.586;37.730;2024-01-30T01:39:37;100419.47;;;-0.77;100.00
62712;BME280;48772;55.586;37.730;2024-01-30T01:42:03;100399.66;;;-0.87;100.00
62712;BME280;48772;55.586;37.730;2024-01-30T01:44:29;100402.13;;;-0.81;100.00
62712;BME280;48772;55.586;37.730;2024-01-30T01:46:55;100391.53;;;-0.75;100.00
62712;BME280;48772;55.586;37.730;2024-01-30T01:49:24;100404.63;;;-0.75;100.00
62712;BME280;48772;55.586;37.730;2024-01-30T01:51:51;100387.19;;;-0.76;100.00
62712;BME280;48772;55.586;37.730;2024-01-30T01:54:19;100408.75;;;-0.65;100.00
62712;BME280;48772;55.586;37.730;2024-01-30T01:56:45;100392.44;;;-0.76;100.00
62712;BME280;48772;55.586;37.730;2024-01-30T01:59:11;100390.59;;;-0.73;100.00
62712;BME280;48772;55.586;37.730;2024-01-30T02:01:38;100390.53;;;-0.70;100.00
62712;BME280;48772;55.586;37.730;2024-01-30T02:04:07;100395.63;;;-0.64;100.00
62712;BME280;48772;55.586;37.730;2024-01-30T02:06:34;100407.81;;;-0.63;100.00
62712;BME280;48772;55.586;37.730;2024-01-30T02:09:00;100356.38;;;-0.65;100.00
62712;BME280;48772;55.586;37.730;2024-01-30T02:11:27;100383.38;;;-0.63;100.00
62712;BME280;48772;55.586;37.730;2024-01-30T02:13:54;100372.91;;;-0.63;100.00
62712;BME280;48772;55.586;37.730;2024-01-30T02:16:20;100351.75;;;-0.54;100.00
62712;BME280;48772;55.586;37.730;2024-01-30T02:18:46;100378.16;;;-0.65;100.00
62712;BME280;48772;55.586;37.730;2024-01-30T02:21:18;100359.59;;;-0.54;100.00
62712;BME280;48772;55.586;37.730;2024-01-30T02:23:46;100358.16;;;-0.67;100.00
62712;BME280;48772;55.586;37.730;2024-01-30T02:26:13;100367.59;;;-0.60;100.00
62712;BME280;48772;55.586;37.730;2024-01-30T02:28:39;100357.97;;;-0.58;100.00
62712;BME280;48772;55.586;37.730;2024-01-30T02:31:05;100368.63;;;-0.67;100.00
62712;BME280;48772;55.586;37.730;2024-01-30T02:33:32;100359.69;;;-0.57;100.00
62712;BME280;48772;55.586;37.730;2024-01-30T02:35:57;100358.94;;;-0.62;100.00
62712;BME280;48772;55.586;37.730;2024-01-30T02:38:24;100372.78;;;-0.57;100.00
62712;BME280;48772;55.586;37.730;2024-01-30T02:40:50;100359.06;;;-0.68;100.00
62712;BME280;48772;55.586;37.730;2024-01-30T02:43:16;100375.25;;;-0.51;100.00
62712;BME280;48772;55.586;37.730;2024-01-30T02:45:43;100379.50;;;-0.47;100.00
62712;BME280;48772;55.586;37.730;2024-01-30T02:48:09;100390.00;;;-0.47;100.00
62712;BME280;48772;55.586;37.730;2024-01-30T02:50:35;100343.75;;;-0.50;100.00
62712;BME280;48772;55.586;37.730;2024-01-30T02:53:01;100380.19;;;-0.39;100.00
62712;BME280;48772;55.586;37.730;2024-01-30T02:55:27;100376.66;;;-0.38;100.00
62712;BME280;48772;55.586;37.730;2024-01-30T02:57:52;100350.94;;;-0.58;100.00
62712;BME280;48772;55.586;37.730;2024-01-30T03:00:19;100365.53;;;-0.48;100.00
62712;BME280;48772;55.586;37.730;2024-01-30T03:02:45;100348.34;;;-0.59;100.00
62712;BME280;48772;55.586;37.730;2024-01-30T03:05:12;100385.34;;;-0.36;100.00
62712;BME280;48772;55.586;37.730;2024-01-30T03:07:38;100362.88;;;-0.46;100.00
62712;BME280;48772;55.586;37.730;2024-01-30T03:10:05;100374.78;;;-0.33;100.00
62712;BME280;48772;55.586;37.730;2024-01-30T03:12:32;100388.88;;;-0.39;100.00
62712;BME280;48772;55.586;37.730;2024-01-30T03:14:58;100377.34;;;-0.32;100.00
62712;BME280;48772;55.586;37.730;2024-01-30T03:17:24;100388.72;;;-0.31;100.00
62712;BME280;48772;55.586;37.730;2024-01-30T03:19:51;100368.94;;;-0.44;100.00
62712;BME280;48772;55.586;37.730;2024-01-30T03:22:17;100377.34;;;-0.32;100.00
62712;BME280;48772;55.586;37.730;2024-01-30T03:24:43;100387.84;;;-0.32;100.00
62712;BME280;48772;55.586;37.730;2024-01-30T03:27:09;100393.81;;;-0.25;100.00
62712;BME280;48772;55.586;37.730;2024-01-30T03:29:35;100388.53;;;-0.24;100.00
62712;BME280;48772;55.586;37.730;2024-01-30T03:32:01;100349.56;;;-0.37;100.00
62712;BME280;48772;55.586;37.730;2024-01-30T03:34:29;100390.13;;;-0.18;100.00
62712;BME280;48772;55.586;37.730;2024-01-30T03:36:55;100366.03;;;-0.32;100.00
62712;BME280;48772;55.586;37.730;2024-01-30T03:39:21;100397.09;;;-0.17;100.00
62712;BME280;48772;55.586;37.730;2024-01-30T03:41:47;100384.81;;;-0.17;100.00
62712;BME280;48772;55.586;37.730;2024-01-30T03:44:13;100390.94;;;-0.16;100.00
62712;BME280;48772;55.586;37.730;2024-01-30T03:46:39;100351.28;;;-0.36;100.00
62712;BME280;48772;55.586;37.730;2024-01-30T03:49:05;100387.34;;;-0.12;100.00
62712;BME280;48772;55.586;37.730;2024-01-30T03:51:31;100388.09;;;-0.07;100.00
62712;BME280;48772;55.586;37.730;2024-01-30T03:53:56;100395.09;;;-0.08;100.00
62712;BME280;48772;55.586;37.730;2024-01-30T03:56:22;100388.25;;;-0.13;100.00
62712;BME280;48772;55.586;37.730;2024-01-30T03:58:50;100394.19;;;-0.07;100.00
62712;BME280;48772;55.586;37.730;2024-01-30T04:01:16;100389.88;;;-0.09;100.00
62712;BME280;48772;55.586;37.730;2024-01-30T04:03:42;100382.09;;;-0.12;100.00
62712;BME280;48772;55.586;37.730;2024-01-30T04:06:09;100384.50;;;-0.03;100.00
62712;BME280;48772;55.586;37.730;2024-01-30T04:08:37;100381.13;;;-0.08;100.00
62712;BME280;48772;55.586;37.730;2024-01-30T04:11:06;100407.06;;;0.03;100.00
62712;BME280;48772;55.586;37.730;2024-01-30T04:13:33;100410.53;;;0.03;100.00
62712;BME280;48772;55.586;37.730;2024-01-30T04:16:00;100403.50;;;0.05;100.00
62712;BME280;48772;55.586;37.730;2024-01-30T04:18:29;100378.38;;;-0.04;100.00
62712;BME280;48772;55.586;37.730;2024-01-30T04:20:56;100396.44;;;0.07;100.00
62712;BME280;48772;55.586;37.730;2024-01-30T04:23:22;100413.84;;;0.11;100.00
62712;BME280;48772;55.586;37.730;2024-01-30T04:25:48;100392.31;;;-0.02;100.00
62712;BME280;48772;55.586;37.730;2024-01-30T04:28:14;100400.81;;;0.08;100.00
62712;BME280;48772;55.586;37.730;2024-01-30T04:30:40;100418.91;;;0.17;100.00
62712;BME280;48772;55.586;37.730;2024-01-30T04:33:06;100412.75;;;0.18;100.00
62712;BME280;48772;55.586;37.730;2024-01-30T04:35:32;100401.38;;;0.19;100.00
62712;BME280;48772;55.586;37.730;2024-01-30T04:37:58;100391.97;;;0.12;100.00
62712;BME280;48772;55.586;37.730;2024-01-30T04:40:24;100393.59;;;0.16;100.00
62712;BME280;48772;55.586;37.730;2024-01-30T04:42:50;100389.31;;;0.14;100.00
62712;BME280;48772;55.586;37.730;2024-01-30T04:45:16;100393.38;;;0.24;100.00
62712;BME280;48772;55.586;37.730;2024-01-30T04:47:42;100381.25;;;0.20;100.00
62712;BME280;48772;55.586;37.730;2024-01-30T04:50:09;100373.53;;;0.15;100.00
62712;BME280;48772;55.586;37.730;2024-01-30T04:52:36;100396.56;;;0.35;100.00
62712;BME280;48772;55.586;37.730;2024-01-30T04:55:02;100371.56;;;0.23;100.00
62712;BME280;48772;55.586;37.730;2024-01-30T04:57:31;100390.47;;;0.34;100.00
62712;BME280;48772;55.586;37.730;2024-01-30T04:59:59;100362.19;;;0.15;100.00
62712;BME280;48772;55.586;37.730;2024-01-30T05:02:26;100408.63;;;0.42;100.00
62712;BME280;48772;55.586;37.730;2024-01-30T05:04:53;100390.38;;;0.39;100.00
62712;BME280;48772;55.586;37.730;2024-01-30T05:07:19;100380.22;;;0.25;100.00
62712;BME280;48772;55.586;37.730;2024-01-30T05:09:44;100412.19;;;0.39;100.00
62712;BME280;48772;55.586;37.730;2024-01-30T05:12:11;100392.28;;;0.32;100.00
62712;BME280;48772;55.586;37.730;2024-01-30T05:14:36;100394.69;;;0.40;100.00
62712;BME280;48772;55.586;37.730;2024-01-30T05:17:02;100399.00;;;0.42;100.00
62712;BME280;48772;55.586;37.730;2024-01-30T05:19:29;100414.47;;;0.51;100.00
62712;BME280;48772;55.586;37.730;2024-01-30T05:21:55;100385.13;;;0.39;100.00
62712;BME280;48772;55.586;37.730;2024-01-30T05:24:21;100414.59;;;0.48;100.00
62712;BME280;48772;55.586;37.730;2024-01-30T05:26:46;100378.78;;;0.46;100.00
62712;BME280;48772;55.586;37.730;2024-01-30T05:29:14;100400.28;;;0.58;100.00
62712;BME280;48772;55.586;37.730;2024-01-30T05:31:40;100375.47;;;0.39;100.00
62712;BME280;48772;55.586;37.730;2024-01-30T05:34:06;100388.22;;;0.51;100.00
62712;BME280;48772;55.586;37.730;2024-01-30T05:36:32;100376.84;;;0.52;100.00
62712;BME280;48772;55.586;37.730;2024-01-30T05:38:58;100380.16;;;0.59;100.00
62712;BME280;48772;55.586;37.730;2024-01-30T05:41:24;100407.00;;;0.68;100.00
62712;BME280;48772;55.586;37.730;2024-01-30T05:43:53;100407.22;;;0.61;100.00
62712;BME280;48772;55.586;37.730;2024-01-30T05:46:19;100404.47;;;0.65;100.00
62712;BME280;48772;55.586;37.730;2024-01-30T05:48:45;100402.75;;;0.64;100.00
62712;BME280;48772;55.586;37.730;2024-01-30T05:51:11;100402.63;;;0.69;100.00
62712;BME280;48772;55.586;37.730;2024-01-30T05:53:37;100410.63;;;0.64;100.00
62712;BME280;48772;55.586;37.730;2024-01-30T05:56:04;100416.41;;;0.75;100.00
62712;BME280;48772;55.586;37.730;2024-01-30T05:58:30;100384.66;;;0.55;100.00
62712;BME280;48772;55.586;37.730;2024-01-30T06:00:59;100416.38;;;0.77;100.00
62712;BME280;48772;55.586;37.730;2024-01-30T06:03:25;100422.59;;;0.74;100.00
62712;BME280;48772;55.586;37.730;2024-01-30T06:05:51;100413.72;;;0.78;100.00
62712;BME280;48772;55.586;37.730;2024-01-30T06:08:17;100412.00;;;0.77;100.00
62712;BME280;48772;55.586;37.730;2024-01-30T06:10:43;100395.53;;;0.71;100.00
62712;BME280;48772;55.586;37.730;2024-01-30T06:13:09;100445.78;;;0.89;100.00
62712;BME280;48772;55.586;37.730;2024-01-30T06:15:35;100430.22;;;0.82;100.00
62712;BME280;48772;55.586;37.730;2024-01-30T06:18:01;100429.19;;;0.87;100.00
62712;BME280;48772;55.586;37.730;2024-01-30T06:20:28;100423.31;;;0.79;100.00
62712;BME280;48772;55.586;37.730;2024-01-30T06:22:53;100422.50;;;0.77;100.00
62712;BME280;48772;55.586;37.730;2024-01-30T06:25:19;100389.66;;;0.63;100.00
62712;BME280;48772;55.586;37.730;2024-01-30T06:27:46;100408.66;;;0.71;100.00
62712;BME280;48772;55.586;37.730;2024-01-30T06:30:12;100450.03;;;0.93;100.00
62712;BME280;48772;55.586;37.730;2024-01-30T06:32:39;100399.03;;;0.71;100.00
62712;BME280;48772;55.586;37.730;2024-01-30T06:35:05;100440.41;;;0.94;100.00
62712;BME280;48772;55.586;37.730;2024-01-30T06:37:31;100437.91;;;0.89;100.00
62712;BME280;48772;55.586;37.730;2024-01-30T06:39:57;100441.16;;;0.97;100.00
62712;BME280;48772;55.586;37.730;2024-01-30T06:42:24;100419.59;;;0.86;100.00
62712;BME280;48772;55.586;37.730;2024-01-30T06:44:49;100418.59;;;0.90;100.00
62712;BME280;48772;55.586;37.730;2024-01-30T06:47:15;100437.56;;;1.00;100.00
62712;BME280;48772;55.586;37.730;2024-01-30T06:49:41;100433.19;;;1.00;100.00
62712;BME280;48772;55.586;37.730;2024-01-30T06:52:09;100437.53;;;1.01;100.00
62712;BME280;48772;55.586;37.730;2024-01-30T06:54:35;100427.69;;;1.08;100.00
62712;BME280;48772;55.586;37.730;2024-01-30T06:57:02;100453.78;;;1.14;100.00
62712;BME280;48772;55.586;37.730;2024-01-30T06:59:29;100425.22;;;1.03;100.00
62712;BME280;48772;55.586;37.730;2024-01-30T07:01:54;100448.25;;;1.23;100.00
62712;BME280;48772;55.586;37.730;2024-01-30T07:04:21;100439.00;;;1.11;100.00
62712;BME280;48772;55.586;37.730;2024-01-30T07:06:46;100448.25;;;1.23;100.00
62712;BME280;48772;55.586;37.730;2024-01-30T07:09:12;100459.72;;;1.20;100.00
62712;BME280;48772;55.586;37.730;2024-01-30T07:11:39;100476.19;;;1.27;100.00
62712;BME280;48772;55.586;37.730;2024-01-30T07:14:05;100470.88;;;1.28;100.00
62712;BME280;48772;55.586;37.730;2024-01-30T07:16:31;100469.25;;;1.23;100.00
62712;BME280;48772;55.586;37.730;2024-01-30T07:18:57;100469.09;;;1.29;100.00
62712;BME280;48772;55.586;37.730;2024-01-30T07:21:23;100445.00;;;1.15;100.00
62712;BME280;48772;55.586;37.730;2024-01-30T07:23:54;100468.25;;;1.28;100.00
62712;BME280;48772;55.586;37.730;2024-01-30T07:26:21;100469.19;;;1.26;100.00
62712;BME280;48772;55.586;37.730;2024-01-30T07:28:47;100481.38;;;1.28;100.00
62712;BME280;48772;55.586;37.730;2024-01-30T07:31:13;100447.78;;;1.10;100.00
62712;BME280;48772;55.586;37.730;2024-01-30T07:33:39;100461.53;;;1.18;100.00
62712;BME280;48772;55.586;37.730;2024-01-30T07:36:05;100466.50;;;1.27;100.00
62712;BME280;48772;55.586;37.730;2024-01-30T07:38:31;100450.75;;;1.27;100.00
62712;BME280;48772;55.586;37.730;2024-01-30T07:40:58;100456.75;;;1.32;100.00
62712;BME280;48772;55.586;37.730;2024-01-30T07:43:24;100466.88;;;1.44;100.00
62712;BME280;48772;55.586;37.730;2024-01-30T07:45:50;100472.09;;;1.46;100.00
62712;BME280;48772;55.586;37.730;2024-01-30T07:48:16;100458.41;;;1.35;100.00
62712;BME280;48772;55.586;37.730;2024-01-30T07:50:42;100443.00;;;1.23;100.00
62712;BME280;48772;55.586;37.730;2024-01-30T07:53:08;100478.91;;;1.51;100.00
62712;BME280;48772;55.586;37.730;2024-01-30T07:55:34;100471.78;;;1.55;100.00
62712;BME280;48772;55.586;37.730;2024-01-30T07:58:00;100470.25;;;1.48;100.00
62712;BME280;48772;55.586;37.730;2024-01-30T08:00:26;100470.13;;;1.52;100.00
62712;BME280;48772;55.586;37.730;2024-01-30T08:02:52;100471.78;;;1.55;100.00
62712;BME280;48772;55.586;37.730;2024-01-30T08:05:19;100474.19;;;1.62;100.00
62712;BME280;48772;55.586;37.730;2024-01-30T08:07:51;100471.34;;;1.68;100.00
62712;BME280;48772;55.586;37.730;2024-01-30T08:10:17;100452.28;;;1.62;100.00
62712;BME280;48772;55.586;37.730;2024-01-30T08:12:46;100475.34;;;1.81;100.00
62712;BME280;48772;55.586;37.730;2024-01-30T08:15:12;100442.66;;;1.62;100.00
62712;BME280;48772;55.586;37.730;2024-01-30T08:17:39;100467.34;;;1.84;100.00
62712;BME280;48772;55.586;37.730;2024-01-30T08:20:05;100466.91;;;1.98;100.00
62712;BME280;48772;55.586;37.730;2024-01-30T08:22:31;100465.28;;;1.94;100.00
62712;BME280;48772;55.586;37.730;2024-01-30T08:24:57;100463.31;;;2.00;100.00
62712;BME280;48772;55.586;37.730;2024-01-30T08:27:23;100463.16;;;2.05;100.00
62712;BME280;48772;55.586;37.730;2024-01-30T08:29:49;100463.81;;;2.11;100.00
62712;BME280;48772;55.586;37.730;2024-01-30T08:32:15;100441.47;;;1.98;100.00
62712;BME280;48772;55.586;37.730;2024-01-30T08:34:42;100474.94;;;2.19;100.00
62712;BME280;48772;55.586;37.730;2024-01-30T08:37:07;100470.59;;;2.18;100.00
62712;BME280;48772;55.586;37.730;2024-01-30T08:39:33;100469.28;;;2.05;100.00
62712;BME280;48772;55.586;37.730;2024-01-30T08:42:00;100467.47;;;2.07;100.00
62712;BME280;48772;55.586;37.730;2024-01-30T08:44:25;100459.19;;;1.92;100.00
62712;BME280;48772;55.586;37.730;2024-01-30T08:46:53;100470.19;;;2.04;100.00
62712;BME280;48772;55.586;37.730;2024-01-30T08:49:19;100460.72;;;1.99;100.00
62712;BME280;48772;55.586;37.730;2024-01-30T08:51:45;100454.66;;;1.97;100.00
62712;BME280;48772;55.586;37.730;2024-01-30T08:54:11;100459.00;;;1.98;100.00
62712;BME280;48772;55.586;37.730;2024-01-30T08:56:37;100439.28;;;1.85;100.00
62712;BME280;48772;55.586;37.730;2024-01-30T08:59:03;100430.78;;;1.77;100.00
62712;BME280;48772;55.586;37.730;2024-01-30T09:01:29;100450.38;;;1.94;100.00
62712;BME280;48772;55.586;37.730;2024-01-30T09:03:56;100459.06;;;1.96;100.00
62712;BME280;48772;55.586;37.730;2024-01-30T09:06:22;100455.72;;;1.91;100.00
62712;BME280;48772;55.586;37.730;2024-01-30T09:08:47;100457.13;;;2.01;100.00
62712;BME280;48772;55.586;37.730;2024-01-30T09:11:14;100434.75;;;1.90;100.00
62712;BME280;48772;55.586;37.730;2024-01-30T09:13:41;100464.22;;;1.99;100.00
62712;BME280;48772;55.586;37.730;2024-01-30T09:16:07;100436.50;;;1.89;100.00
62712;BME280;48772;55.586;37.730;2024-01-30T09:18:33;100463.13;;;2.06;100.00
62712;BME280;48772;55.586;37.730;2024-01-30T09:20:59;100455.31;;;2.03;100.00
62712;BME280;48772;55.586;37.730;2024-01-30T09:23:27;100431.16;;;1.92;100.00
62712;BME280;48772;55.586;37.730;2024-01-30T09:25:53;100467.25;;;2.13;100.00
62712;BME280;48772;55.586;37.730;2024-01-30T09:28:19;100461.09;;;2.14;100.00
62712;BME280;48772;55.586;37.730;2024-01-30T09:30:45;100470.59;;;2.18;100.00
62712;BME280;48772;55.586;37.730;2024-01-30T09:33:11;100465.34;;;2.18;100.00
62712;BME280;48772;55.586;37.730;2024-01-30T09:35:37;100453.50;;;2.05;100.00
62712;BME280;48772;55.586;37.730;2024-01-30T09:38:03;100459.31;;;2.15;100.00
62712;BME280;48772;55.586;37.730;2024-01-30T09:40:30;100429.03;;;2.03;100.00
62712;BME280;48772;55.586;37.730;2024-01-30T09:42:56;100467.72;;;2.26;100.00
62712;BME280;48772;55.586;37.730;2024-01-30T09:45:26;100466.84;;;2.25;100.00
62712;BME280;48772;55.586;37.730;2024-01-30T09:47:53;100458.13;;;2.23;100.00
62712;BME280;48772;55.586;37.730;2024-01-30T09:50:19;100440.53;;;2.25;100.00
62712;BME280;48772;55.586;37.730;2024-01-30T09:52:46;100460.53;;;2.31;100.00
62712;BME280;48772;55.586;37.730;2024-01-30T09:55:13;100457.00;;;2.30;100.00
62712;BME280;48772;55.586;37.730;2024-01-30T09:57:39;100417.97;;;2.18;100.00
62712;BME280;48772;55.586;37.730;2024-01-30T10:00:06;100435.38;;;2.22;100.00
62712;BME280;48772;55.586;37.730;2024-01-30T10:02:39;100451.59;;;2.35;100.00
62712;BME280;48772;55.586;37.730;2024-01-30T10:05:06;100436.94;;;2.28;100.00
62712;BME280;48772;55.586;37.730;2024-01-30T10:07:32;100418.41;;;2.06;100.00
62712;BME280;48772;55.586;37.730;2024-01-30T10:09:58;100448.47;;;2.24;100.00
62712;BME280;48772;55.586;37.730;2024-01-30T10:12:26;100433.84;;;2.15;100.00
62712;BME280;48772;55.586;37.730;2024-01-30T10:14:52;100424.25;;;2.14;100.00
62712;BME280;48772;55.586;37.730;2024-01-30T10:17:18;100449.34;;;2.24;100.00
62712;BME280;48772;55.586;37.730;2024-01-30T10:19:47;100463.41;;;2.23;100.00
62712;BME280;48772;55.586;37.730;2024-01-30T10:22:14;100448.66;;;2.18;100.00
62712;BME280;48772;55.586;37.730;2024-01-30T10:24:40;100433.22;;;2.09;100.00
62712;BME280;48772;55.586;37.730;2024-01-30T10:27:06;100454.81;;;2.18;100.00
62712;BME280;48772;55.586;37.730;2024-01-30T10:29:32;100457.63;;;2.12;100.00
62712;BME280;48772;55.586;37.730;2024-01-30T10:32:02;100452.94;;;2.22;100.00
62712;BME280;48772;55.586;37.730;2024-01-30T10:34:29;100452.06;;;2.21;100.00
62712;BME280;48772;55.586;37.730;2024-01-30T10:37:09;100460.72;;;2.25;100.00
62712;BME280;48772;55.586;37.730;2024-01-30T10:39:39;100465.72;;;2.32;100.00
62712;BME280;48772;55.586;37.730;2024-01-30T10:42:06;100443.06;;;2.28;100.00
62712;BME280;48772;55.586;37.730;2024-01-30T10:47:21;100445.16;;;2.43;100.00
62712;BME280;48772;55.586;37.730;2024-01-30T10:50:16;100448.28;;;2.54;100.00
62712;BME280;48772;55.586;37.730;2024-01-30T10:52:47;100402.19;;;2.18;100.00
62712;BME280;48772;55.586;37.730;2024-01-30T10:55:40;100453.56;;;2.54;100.00
62712;BME280;48772;55.586;37.730;2024-01-30T10:58:13;100444.72;;;2.31;100.00
62712;BME280;48772;55.586;37.730;2024-01-30T11:00:42;100338.81;;;1.75;100.00
62712;BME280;48772;55.586;37.730;2024-01-30T11:03:08;100404.34;;;2.07;100.00
62712;BME280;48772;55.586;37.730;2024-01-30T11:05:34;100445.06;;;2.46;100.00
62712;BME280;48772;55.586;37.730;2024-01-30T11:08:13;100451.84;;;2.53;100.00
62712;BME280;48772;55.586;37.730;2024-01-30T11:10:48;100416.13;;;2.22;100.00
62712;BME280;48772;55.586;37.730;2024-01-30T11:13:29;100450.38;;;2.45;100.00
62712;BME280;48772;55.586;37.730;2024-01-30T11:19:32;100471.06;;;2.55;100.00
62712;BME280;48772;55.586;37.730;2024-01-30T11:21:59;100451.31;;;2.44;100.00
62712;BME280;48772;55.586;37.730;2024-01-30T11:24:25;100463.22;;;2.54;100.00
62712;BME280;48772;55.586;37.730;2024-01-30T11:27:02;100459.75;;;2.53;100.00
62712;BME280;48772;55.586;37.730;2024-01-30T11:29:35;100460.69;;;2.51;100.00
62712;BME280;48772;55.586;37.730;2024-01-30T11:32:01;100429.75;;;2.33;100.00
62712;BME280;48772;55.586;37.730;2024-01-30T11:34:26;100464.19;;;2.51;100.00
62712;BME280;48772;55.586;37.730;2024-01-30T11:36:56;100449.41;;;2.47;100.00
62712;BME280;48772;55.586;37.730;2024-01-30T11:39:29;100449.84;;;2.35;100.00
62712;BME280;48772;55.586;37.730;2024-01-30T11:41:55;100438.53;;;2.32;100.00
62712;BME280;48772;55.586;37.730;2024-01-30T11:44:22;100455.69;;;2.43;100.00
62712;BME280;48772;55.586;37.730;2024-01-30T11:46:49;100446.97;;;2.41;100.00
62712;BME280;48772;55.586;37.730;2024-01-30T11:49:16;100463.41;;;2.49;100.00
62712;BME280;48772;55.586;37.730;2024-01-30T11:51:48;100451.94;;;2.50;100.00
62712;BME280;48772;55.586;37.730;2024-01-30T11:54:15;100464.38;;;2.45;100.00
62712;BME280;48772;55.586;37.730;2024-01-30T11:56:42;100469.66;;;2.45;100.00
62712;BME280;48772;55.586;37.730;2024-01-30T11:59:08;100469.59;;;2.47;100.00
62712;BME280;48772;55.586;37.730;2024-01-30T12:01:34;100453.25;;;2.37;100.00
62712;BME280;48772;55.586;37.730;2024-01-30T12:04:01;100474.28;;;2.39;100.00
62712;BME280;48772;55.586;37.730;2024-01-30T12:06:27;100471.69;;;2.37;100.00
62712;BME280;48772;55.586;37.730;2024-01-30T12:09:01;100461.38;;;2.31;100.00
62712;BME280;48772;55.586;37.730;2024-01-30T12:11:29;100474.38;;;2.36;100.00
62712;BME280;48772;55.586;37.730;2024-01-30T12:13:56;100428.06;;;2.06;100.00
62712;BME280;48772;55.586;37.730;2024-01-30T12:16:22;100496.84;;;2.46;100.00
62712;BME280;48772;55.586;37.730;2024-01-30T12:18:48;100484.84;;;2.37;100.00
62712;BME280;48772;55.586;37.730;2024-01-30T12:21:17;100482.44;;;2.31;100.00
62712;BME280;48772;55.586;37.730;2024-01-30T12:23:44;100496.16;;;2.41;100.00
62712;BME280;48772;55.586;37.730;2024-01-30T12:26:10;100504.13;;;2.38;100.00
62712;BME280;48772;55.586;37.730;2024-01-30T12:28:36;100479.09;;;2.26;100.00
62712;BME280;48772;55.586;37.730;2024-01-30T12:31:05;100498.94;;;2.36;100.00
62712;BME280;48772;55.586;37.730;2024-01-30T12:33:31;100465.44;;;2.15;100.00
62712;BME280;48772;55.586;37.730;2024-01-30T12:36:01;100506.88;;;2.35;100.00
62712;BME280;48772;55.586;37.730;2024-01-30T12:38:27;100506.91;;;2.33;100.00
62712;BME280;48772;55.586;37.730;2024-01-30T12:40:56;100476.81;;;2.16;100.00